sensor_id;sensor_type;location;lat;lon;timestamp;temperature;humidity
2995;DHT22;35277;49.890;8.222;2023-02-03T00:01:18;21.50;61.70
2995;DHT22;35277;49.890;8.222;2023-02-03T00:03:46;21.50;61.60
2995;DHT22;35277;49.890;8.222;2023-02-03T00:06:14;21.50;61.60
2995;DHT22;35277;49.890;8.222;2023-02-03T00:08:43;21.50;61.70
2995;DHT22;35277;49.890;8.222;2023-02-03T00:11:11;21.50;61.70
2995;DHT22;35277;49.890;8.222;2023-02-03T00:13:39;21.60;61.70
2995;DHT22;35277;49.890;8.222;2023-02-03T00:16:07;21.50;61.60
2995;DHT22;35277;49.890;8.222;2023-02-03T00:18:35;21.50;61.60
2995;DHT22;35277;49.890;8.222;2023-02-03T00:21:03;21.60;61.70
2995;DHT22;35277;49.890;8.222;2023-02-03T00:23:31;21.60;61.70
2995;DHT22;35277;49.890;8.222;2023-02-03T00:26:07;21.60;61.70
2995;DHT22;35277;49.890;8.222;2023-02-03T00:28:36;21.50;61.60
2995;DHT22;35277;49.890;8.222;2023-02-03T00:31:04;21.50;61.60
2995;DHT22;35277;49.890;8.222;2023-02-03T00:33:31;21.50;61.60
2995;DHT22;35277;49.890;8.222;2023-02-03T00:36:04;21.50;61.60
2995;DHT22;35277;49.890;8.222;2023-02-03T00:38:31;21.50;61.60
2995;DHT22;35277;49.890;8.222;2023-02-03T00:40:59;21.50;61.60
2995;DHT22;35277;49.890;8.222;2023-02-03T00:43:28;21.50;61.60
2995;DHT22;35277;49.890;8.222;2023-02-03T00:45:56;21.50;61.60
2995;DHT22;35277;49.890;8.222;2023-02-03T00:48:24;21.50;61.60
2995;DHT22;35277;49.890;8.222;2023-02-03T00:50:52;21.60;61.70
2995;DHT22;35277;49.890;8.222;2023-02-03T00:53:20;21.50;61.60
2995;DHT22;35277;49.890;8.222;2023-02-03T00:55:48;21.50;61.60
2995;DHT22;35277;49.890;8.222;2023-02-03T00:58:15;21.60;61.70
2995;DHT22;35277;49.890;8.222;2023-02-03T01:00:45;21.50;61.60
2995;DHT22;35277;49.890;8.222;2023-02-03T01:03:12;21.50;61.60
2995;DHT22;35277;49.890;8.222;2023-02-03T01:05:40;21.60;61.70
2995;DHT22;35277;49.890;8.222;2023-02-03T01:08:08;21.50;61.70
2995;DHT22;35277;49.890;8.222;2023-02-03T01:10:37;21.50;61.60
2995;DHT22;35277;49.890;8.222;2023-02-03T01:13:05;21.50;61.60
2995;DHT22;35277;49.890;8.222;2023-02-03T01:15:33;21.60;61.80
2995;DHT22;35277;49.890;8.222;2023-02-03T01:18:02;21.50;61.60
2995;DHT22;35277;49.890;8.222;2023-02-03T01:20:30;21.60;61.70
2995;DHT22;35277;49.890;8.222;2023-02-03T01:22:58;21.50;61.70
2995;DHT22;35277;49.890;8.222;2023-02-03T01:25:25;21.50;61.70
2995;DHT22;35277;49.890;8.222;2023-02-03T01:27:53;21.50;61.70
2995;DHT22;35277;49.890;8.222;2023-02-03T01:30:22;21.50;61.70
2995;DHT22;35277;49.890;8.222;2023-02-03T01:32:51;21.60;61.80
2995;DHT22;35277;49.890;8.222;2023-02-03T01:35:20;21.60;61.80
2995;DHT22;35277;49.890;8.222;2023-02-03T01:37:48;21.50;61.70
2995;DHT22;35277;49.890;8.222;2023-02-03T01:40:16;21.50;61.70
2995;DHT22;35277;49.890;8.222;2023-02-03T01:42:44;21.50;61.70
2995;DHT22;35277;49.890;8.222;2023-02-03T01:45:13;21.50;61.70
2995;DHT22;35277;49.890;8.222;2023-02-03T01:47:45;21.60;61.80
2995;DHT22;35277;49.890;8.222;2023-02-03T01:50:17;21.50;61.70
2995;DHT22;35277;49.890;8.222;2023-02-03T01:52:50;21.50;61.70
2995;DHT22;35277;49.890;8.222;2023-02-03T01:55:21;21.50;61.70
2995;DHT22;35277;49.890;8.222;2023-02-03T01:57:52;21.50;61.70
2995;DHT22;35277;49.890;8.222;2023-02-03T02:00:22;21.50;61.70
2995;DHT22;35277;49.890;8.222;2023-02-03T02:02:56;21.50;61.70
2995;DHT22;35277;49.890;8.222;2023-02-03T02:05:30;21.60;61.90
2995;DHT22;35277;49.890;8.222;2023-02-03T02:08:01;21.60;61.90
2995;DHT22;35277;49.890;8.222;2023-02-03T02:10:30;21.60;61.90
2995;DHT22;35277;49.890;8.222;2023-02-03T02:12:59;21.60;61.90
2995;DHT22;35277;49.890;8.222;2023-02-03T02:15:38;21.50;61.70
2995;DHT22;35277;49.890;8.222;2023-02-03T02:18:23;21.50;61.80
2995;DHT22;35277;49.890;8.222;2023-02-03T02:21:22;21.50;61.80
2995;DHT22;35277;49.890;8.222;2023-02-03T02:24:06;21.50;61.80
2995;DHT22;35277;49.890;8.222;2023-02-03T02:26:50;21.60;61.90
2995;DHT22;35277;49.890;8.222;2023-02-03T02:32:25;21.50;61.80
2995;DHT22;35277;49.890;8.222;2023-02-03T02:35:02;21.50;61.80
2995;DHT22;35277;49.890;8.222;2023-02-03T02:37:37;21.50;61.90
2995;DHT22;35277;49.890;8.222;2023-02-03T02:40:20;21.50;61.80
2995;DHT22;35277;49.890;8.222;2023-02-03T02:43:01;21.50;61.80
2995;DHT22;35277;49.890;8.222;2023-02-03T02:45:32;21.50;61.90
2995;DHT22;35277;49.890;8.222;2023-02-03T02:48:06;21.50;61.80
2995;DHT22;35277;49.890;8.222;2023-02-03T02:50:38;21.50;61.90
2995;DHT22;35277;49.890;8.222;2023-02-03T02:53:09;21.50;61.90
2995;DHT22;35277;49.890;8.222;2023-02-03T02:55:41;21.60;62.00
2995;DHT22;35277;49.890;8.222;2023-02-03T02:58:12;21.50;61.90
2995;DHT22;35277;49.890;8.222;2023-02-03T03:00:43;21.50;61.90
2995;DHT22;35277;49.890;8.222;2023-02-03T03:03:15;21.50;61.90
2995;DHT22;35277;49.890;8.222;2023-02-03T03:05:46;21.50;61.90
2995;DHT22;35277;49.890;8.222;2023-02-03T03:08:20;21.50;61.90
2995;DHT22;35277;49.890;8.222;2023-02-03T03:10:49;21.50;61.90
2995;DHT22;35277;49.890;8.222;2023-02-03T03:13:21;21.50;61.90
2995;DHT22;35277;49.890;8.222;2023-02-03T03:15:52;21.50;61.90
2995;DHT22;35277;49.890;8.222;2023-02-03T03:18:28;21.60;62.00
2995;DHT22;35277;49.890;8.222;2023-02-03T03:20:58;21.50;61.90
2995;DHT22;35277;49.890;8.222;2023-02-03T03:23:34;21.50;61.90
2995;DHT22;35277;49.890;8.222;2023-02-03T03:26:23;21.60;62.00
2995;DHT22;35277;49.890;8.222;2023-02-03T03:28:59;21.50;61.90
2995;DHT22;35277;49.890;8.222;2023-02-03T03:31:29;21.50;61.90
2995;DHT22;35277;49.890;8.222;2023-02-03T03:33:57;21.50;61.90
2995;DHT22;35277;49.890;8.222;2023-02-03T03:36:27;21.50;61.90
2995;DHT22;35277;49.890;8.222;2023-02-03T03:39:02;21.50;61.90
2995;DHT22;35277;49.890;8.222;2023-02-03T03:41:38;21.50;62.00
2995;DHT22;35277;49.890;8.222;2023-02-03T03:44:12;21.50;61.90
2995;DHT22;35277;49.890;8.222;2023-02-03T03:46:44;21.50;62.00
2995;DHT22;35277;49.890;8.222;2023-02-03T03:49:15;21.50;61.90
2995;DHT22;35277;49.890;8.222;2023-02-03T03:51:47;21.50;62.00
2995;DHT22;35277;49.890;8.222;2023-02-03T03:54:19;21.50;62.00
2995;DHT22;35277;49.890;8.222;2023-02-03T03:56:54;21.50;62.10
2995;DHT22;35277;49.890;8.222;2023-02-03T03:59:25;21.50;62.10
2995;DHT22;35277;49.890;8.222;2023-02-03T04:01:54;21.50;62.20
2995;DHT22;35277;49.890;8.222;2023-02-03T04:04:24;21.50;62.20
2995;DHT22;35277;49.890;8.222;2023-02-03T04:06:52;21.50;62.20
2995;DHT22;35277;49.890;8.222;2023-02-03T04:09:21;21.50;62.20
2995;DHT22;35277;49.890;8.222;2023-02-03T04:11:50;21.50;62.20
2995;DHT22;35277;49.890;8.222;2023-02-03T04:14:33;21.50;62.30
2995;DHT22;35277;49.890;8.222;2023-02-03T04:17:03;21.50;62.30
2995;DHT22;35277;49.890;8.222;2023-02-03T04:19:31;21.50;62.30
2995;DHT22;35277;49.890;8.222;2023-02-03T04:21:59;21.50;62.30
2995;DHT22;35277;49.890;8.222;2023-02-03T04:24:26;21.50;62.30
2995;DHT22;35277;49.890;8.222;2023-02-03T04:26:55;21.60;62.50
2995;DHT22;35277;49.890;8.222;2023-02-03T04:29:23;21.50;62.30
2995;DHT22;35277;49.890;8.222;2023-02-03T04:31:51;21.50;62.30
2995;DHT22;35277;49.890;8.222;2023-02-03T04:34:19;21.50;62.40
2995;DHT22;35277;49.890;8.222;2023-02-03T04:36:46;21.50;62.30
2995;DHT22;35277;49.890;8.222;2023-02-03T04:39:14;21.50;62.30
2995;DHT22;35277;49.890;8.222;2023-02-03T04:41:42;21.50;62.30
2995;DHT22;35277;49.890;8.222;2023-02-03T04:44:11;21.50;62.40
2995;DHT22;35277;49.890;8.222;2023-02-03T04:46:38;21.50;62.30
2995;DHT22;35277;49.890;8.222;2023-02-03T04:49:06;21.50;62.40
2995;DHT22;35277;49.890;8.222;2023-02-03T04:51:37;21.50;62.30
2995;DHT22;35277;49.890;8.222;2023-02-03T04:54:05;21.50;62.40
2995;DHT22;35277;49.890;8.222;2023-02-03T04:56:32;21.50;62.40
2995;DHT22;35277;49.890;8.222;2023-02-03T04:59:00;21.50;62.40
2995;DHT22;35277;49.890;8.222;2023-02-03T05:01:29;21.50;62.40
2995;DHT22;35277;49.890;8.222;2023-02-03T05:03:57;21.50;62.50
2995;DHT22;35277;49.890;8.222;2023-02-03T05:06:26;21.50;62.40
2995;DHT22;35277;49.890;8.222;2023-02-03T05:08:55;21.50;62.40
2995;DHT22;35277;49.890;8.222;2023-02-03T05:11:23;21.50;62.40
2995;DHT22;35277;49.890;8.222;2023-02-03T05:13:51;21.50;62.40
2995;DHT22;35277;49.890;8.222;2023-02-03T05:16:19;21.50;62.40
2995;DHT22;35277;49.890;8.222;2023-02-03T05:18:48;21.50;62.40
2995;DHT22;35277;49.890;8.222;2023-02-03T05:21:16;21.50;62.30
2995;DHT22;35277;49.890;8.222;2023-02-03T05:23:44;21.50;62.40
2995;DHT22;35277;49.890;8.222;2023-02-03T05:26:12;21.50;62.30
2995;DHT22;35277;49.890;8.222;2023-02-03T05:28:40;21.50;62.30
2995;DHT22;35277;49.890;8.222;2023-02-03T05:31:07;21.50;62.30
2995;DHT22;35277;49.890;8.222;2023-02-03T05:33:35;21.50;62.30
2995;DHT22;35277;49.890;8.222;2023-02-03T05:36:05;21.50;62.30
2995;DHT22;35277;49.890;8.222;2023-02-03T05:38:33;21.50;62.20
2995;DHT22;35277;49.890;8.222;2023-02-03T05:41:00;21.50;62.20
2995;DHT22;35277;49.890;8.222;2023-02-03T05:43:46;21.50;62.20
2995;DHT22;35277;49.890;8.222;2023-02-03T05:46:13;21.50;62.20
2995;DHT22;35277;49.890;8.222;2023-02-03T05:48:41;21.50;62.20
2995;DHT22;35277;49.890;8.222;2023-02-03T05:51:10;21.50;62.20
2995;DHT22;35277;49.890;8.222;2023-02-03T05:53:38;21.50;62.20
2995;DHT22;35277;49.890;8.222;2023-02-03T05:56:06;21.50;62.20
2995;DHT22;35277;49.890;8.222;2023-02-03T05:58:34;21.50;62.10
2995;DHT22;35277;49.890;8.222;2023-02-03T06:01:01;21.50;62.10
2995;DHT22;35277;49.890;8.222;2023-02-03T06:03:29;21.50;62.20
2995;DHT22;35277;49.890;8.222;2023-02-03T06:05:57;21.50;62.10
2995;DHT22;35277;49.890;8.222;2023-02-03T06:08:26;21.50;62.10
2995;DHT22;35277;49.890;8.222;2023-02-03T06:10:57;21.50;62.10
2995;DHT22;35277;49.890;8.222;2023-02-03T06:13:25;21.50;62.10
2995;DHT22;35277;49.890;8.222;2023-02-03T06:15:53;21.50;62.10
2995;DHT22;35277;49.890;8.222;2023-02-03T06:18:21;21.50;62.10
2995;DHT22;35277;49.890;8.222;2023-02-03T06:20:49;21.50;62.50
2995;DHT22;35277;49.890;8.222;2023-02-03T06:23:17;21.60;63.20
2995;DHT22;35277;49.890;8.222;2023-02-03T06:25:49;21.60;63.40
2995;DHT22;35277;49.890;8.222;2023-02-03T06:28:17;21.50;63.60
2995;DHT22;35277;49.890;8.222;2023-02-03T06:30:48;21.60;63.80
2995;DHT22;35277;49.890;8.222;2023-02-03T06:33:16;21.60;63.90
2995;DHT22;35277;49.890;8.222;2023-02-03T06:35:44;21.50;63.80
2995;DHT22;35277;49.890;8.222;2023-02-03T06:38:12;21.60;63.90
2995;DHT22;35277;49.890;8.222;2023-02-03T06:40:39;21.50;63.80
2995;DHT22;35277;49.890;8.222;2023-02-03T06:43:08;21.60;63.90
2995;DHT22;35277;49.890;8.222;2023-02-03T06:45:36;21.60;63.90
2995;DHT22;35277;49.890;8.222;2023-02-03T06:48:04;21.60;63.80
2995;DHT22;35277;49.890;8.222;2023-02-03T06:50:33;21.60;63.80
2995;DHT22;35277;49.890;8.222;2023-02-03T06:53:01;21.60;63.80
2995;DHT22;35277;49.890;8.222;2023-02-03T06:55:29;21.50;63.70
2995;DHT22;35277;49.890;8.222;2023-02-03T06:57:56;21.60;63.70
2995;DHT22;35277;49.890;8.222;2023-02-03T07:00:26;21.60;63.70
2995;DHT22;35277;49.890;8.222;2023-02-03T07:02:55;21.60;63.70
2995;DHT22;35277;49.890;8.222;2023-02-03T07:05:23;21.60;63.90
2995;DHT22;35277;49.890;8.222;2023-02-03T07:07:51;21.60;64.00
2995;DHT22;35277;49.890;8.222;2023-02-03T07:10:19;21.60;64.10
2995;DHT22;35277;49.890;8.222;2023-02-03T07:12:47;21.60;64.10
2995;DHT22;35277;49.890;8.222;2023-02-03T07:15:16;21.60;64.20
2995;DHT22;35277;49.890;8.222;2023-02-03T07:17:46;21.60;64.20
2995;DHT22;35277;49.890;8.222;2023-02-03T07:20:20;21.60;64.30
2995;DHT22;35277;49.890;8.222;2023-02-03T07:22:52;21.60;64.30
2995;DHT22;35277;49.890;8.222;2023-02-03T07:25:21;21.60;64.30
2995;DHT22;35277;49.890;8.222;2023-02-03T07:27:49;21.60;64.30
2995;DHT22;35277;49.890;8.222;2023-02-03T07:30:17;21.70;64.50
2995;DHT22;35277;49.890;8.222;2023-02-03T07:32:50;21.60;64.30
2995;DHT22;35277;49.890;8.222;2023-02-03T07:35:19;21.70;64.40
2995;DHT22;35277;49.890;8.222;2023-02-03T07:37:46;21.60;64.10
2995;DHT22;35277;49.890;8.222;2023-02-03T07:40:15;21.60;64.10
2995;DHT22;35277;49.890;8.222;2023-02-03T07:42:44;21.60;64.00
2995;DHT22;35277;49.890;8.222;2023-02-03T07:45:13;21.60;64.00
2995;DHT22;35277;49.890;8.222;2023-02-03T07:47:42;21.60;63.90
2995;DHT22;35277;49.890;8.222;2023-02-03T07:50:12;21.60;63.90
2995;DHT22;35277;49.890;8.222;2023-02-03T07:52:39;21.60;63.80
2995;DHT22;35277;49.890;8.222;2023-02-03T07:55:08;21.60;63.80
2995;DHT22;35277;49.890;8.222;2023-02-03T07:57:36;21.60;63.70
2995;DHT22;35277;49.890;8.222;2023-02-03T08:00:10;21.60;63.70
2995;DHT22;35277;49.890;8.222;2023-02-03T08:02:38;21.60;63.70
2995;DHT22;35277;49.890;8.222;2023-02-03T08:05:06;21.60;63.60
2995;DHT22;35277;49.890;8.222;2023-02-03T08:07:36;21.60;63.60
2995;DHT22;35277;49.890;8.222;2023-02-03T08:10:04;21.60;63.50
2995;DHT22;35277;49.890;8.222;2023-02-03T08:12:32;21.60;63.50
2995;DHT22;35277;49.890;8.222;2023-02-03T08:15:00;21.60;63.40
2995;DHT22;35277;49.890;8.222;2023-02-03T08:17:28;21.60;63.40
2995;DHT22;35277;49.890;8.222;2023-02-03T08:19:55;21.60;63.30
2995;DHT22;35277;49.890;8.222;2023-02-03T08:22:23;21.60;63.30
2995;DHT22;35277;49.890;8.222;2023-02-03T08:24:52;21.60;63.30
2995;DHT22;35277;49.890;8.222;2023-02-03T08:27:21;21.60;63.20
2995;DHT22;35277;49.890;8.222;2023-02-03T08:29:49;21.60;63.20
2995;DHT22;35277;49.890;8.222;2023-02-03T08:32:19;21.60;63.20
2995;DHT22;35277;49.890;8.222;2023-02-03T08:34:48;21.60;63.20
2995;DHT22;35277;49.890;8.222;2023-02-03T08:37:17;21.60;63.20
2995;DHT22;35277;49.890;8.222;2023-02-03T08:39:45;21.60;63.20
2995;DHT22;35277;49.890;8.222;2023-02-03T08:42:15;21.60;63.10
2995;DHT22;35277;49.890;8.222;2023-02-03T08:44:42;21.60;63.20
2995;DHT22;35277;49.890;8.222;2023-02-03T08:47:10;21.60;63.10
2995;DHT22;35277;49.890;8.222;2023-02-03T08:49:38;21.60;63.10
2995;DHT22;35277;49.890;8.222;2023-02-03T08:52:09;21.60;63.00
2995;DHT22;35277;49.890;8.222;2023-02-03T08:54:37;21.60;63.80
2995;DHT22;35277;49.890;8.222;2023-02-03T08:57:06;21.60;63.00
2995;DHT22;35277;49.890;8.222;2023-02-03T08:59:37;21.60;63.00
2995;DHT22;35277;49.890;8.222;2023-02-03T09:02:07;21.60;62.90
2995;DHT22;35277;49.890;8.222;2023-02-03T09:04:36;21.60;62.90
2995;DHT22;35277;49.890;8.222;2023-02-03T09:07:04;21.60;62.90
2995;DHT22;35277;49.890;8.222;2023-02-03T09:09:31;21.60;62.80
2995;DHT22;35277;49.890;8.222;2023-02-03T09:12:00;21.60;62.80
2995;DHT22;35277;49.890;8.222;2023-02-03T09:14:31;21.60;62.80
2995;DHT22;35277;49.890;8.222;2023-02-03T09:17:01;21.60;62.80
2995;DHT22;35277;49.890;8.222;2023-02-03T09:19:30;21.60;62.70
2995;DHT22;35277;49.890;8.222;2023-02-03T09:22:02;21.60;62.70
2995;DHT22;35277;49.890;8.222;2023-02-03T09:24:30;21.60;62.70
2995;DHT22;35277;49.890;8.222;2023-02-03T09:26:57;21.60;62.70
2995;DHT22;35277;49.890;8.222;2023-02-03T09:29:26;21.60;62.60
2995;DHT22;35277;49.890;8.222;2023-02-03T09:31:54;21.60;62.60
2995;DHT22;35277;49.890;8.222;2023-02-03T09:34:23;21.60;62.60
2995;DHT22;35277;49.890;8.222;2023-02-03T09:36:51;21.60;62.60
2995;DHT22;35277;49.890;8.222;2023-02-03T09:39:18;21.60;62.60
2995;DHT22;35277;49.890;8.222;2023-02-03T09:44:55;21.60;62.60
2995;DHT22;35277;49.890;8.222;2023-02-03T09:47:27;21.60;62.50
2995;DHT22;35277;49.890;8.222;2023-02-03T09:50:00;21.60;62.60
2995;DHT22;35277;49.890;8.222;2023-02-03T09:52:32;21.60;62.60
2995;DHT22;35277;49.890;8.222;2023-02-03T09:55:03;21.60;62.60
2995;DHT22;35277;49.890;8.222;2023-02-03T09:57:36;21.60;62.60
2995;DHT22;35277;49.890;8.222;2023-02-03T10:00:15;21.60;62.60
2995;DHT22;35277;49.890;8.222;2023-02-03T10:02:54;21.60;62.60
2995;DHT22;35277;49.890;8.222;2023-02-03T10:05:28;21.60;62.60
2995;DHT22;35277;49.890;8.222;2023-02-03T10:08:03;21.60;62.50
2995;DHT22;35277;49.890;8.222;2023-02-03T10:10:38;21.60;62.60
2995;DHT22;35277;49.890;8.222;2023-02-03T10:13:14;21.60;62.50
2995;DHT22;35277;49.890;8.222;2023-02-03T10:16:03;21.60;62.50
2995;DHT22;35277;49.890;8.222;2023-02-03T10:18:39;21.60;62.40
2995;DHT22;35277;49.890;8.222;2023-02-03T10:21:15;21.60;62.40
2995;DHT22;35277;49.890;8.222;2023-02-03T10:23:44;21.60;62.40
2995;DHT22;35277;49.890;8.222;2023-02-03T10:26:16;21.60;62.40
2995;DHT22;35277;49.890;8.222;2023-02-03T10:28:52;21.60;62.30
2995;DHT22;35277;49.890;8.222;2023-02-03T10:31:22;21.60;62.40
2995;DHT22;35277;49.890;8.222;2023-02-03T10:33:57;21.60;62.40
2995;DHT22;35277;49.890;8.222;2023-02-03T10:36:35;21.60;62.30
2995;DHT22;35277;49.890;8.222;2023-02-03T10:39:14;21.60;62.30
2995;DHT22;35277;49.890;8.222;2023-02-03T10:41:43;21.60;62.30
2995;DHT22;35277;49.890;8.222;2023-02-03T10:44:13;21.60;62.30
2995;DHT22;35277;49.890;8.222;2023-02-03T10:46:42;21.60;62.40
2995;DHT22;35277;49.890;8.222;2023-02-03T10:49:12;21.60;62.50
2995;DHT22;35277;49.890;8.222;2023-02-03T10:51:46;21.60;62.70
2995;DHT22;35277;49.890;8.222;2023-02-03T10:54:26;21.70;63.10
2995;DHT22;35277;49.890;8.222;2023-02-03T10:56:56;21.60;63.50
2995;DHT22;35277;49.890;8.222;2023-02-03T10:59:28;21.60;64.30
2995;DHT22;35277;49.890;8.222;2023-02-03T11:01:56;21.70;65.10
2995;DHT22;35277;49.890;8.222;2023-02-03T11:04:27;21.70;65.50
2995;DHT22;35277;49.890;8.222;2023-02-03T11:06:57;21.70;65.90
2995;DHT22;35277;49.890;8.222;2023-02-03T11:09:31;21.70;66.00
2995;DHT22;35277;49.890;8.222;2023-02-03T11:12:12;21.70;66.30
2995;DHT22;35277;49.890;8.222;2023-02-03T11:14:42;21.70;66.30
2995;DHT22;35277;49.890;8.222;2023-02-03T11:17:15;21.80;66.50
2995;DHT22;35277;49.890;8.222;2023-02-03T11:19:45;21.80;66.60
2995;DHT22;35277;49.890;8.222;2023-02-03T11:22:26;21.80;66.50
2995;DHT22;35277;49.890;8.222;2023-02-03T11:24:54;21.80;66.60
2995;DHT22;35277;49.890;8.222;2023-02-03T11:27:23;21.80;66.40
2995;DHT22;35277;49.890;8.222;2023-02-03T11:30:08;21.80;66.20
2995;DHT22;35277;49.890;8.222;2023-02-03T11:32:38;21.70;65.70
2995;DHT22;35277;49.890;8.222;2023-02-03T11:35:15;21.70;65.60
2995;DHT22;35277;49.890;8.222;2023-02-03T11:37:46;21.70;65.30
2995;DHT22;35277;49.890;8.222;2023-02-03T11:40:26;21.70;65.10
2995;DHT22;35277;49.890;8.222;2023-02-03T11:43:01;21.70;65.00
2995;DHT22;35277;49.890;8.222;2023-02-03T11:45:34;21.70;64.90
2995;DHT22;35277;49.890;8.222;2023-02-03T11:48:17;21.70;64.80
2995;DHT22;35277;49.890;8.222;2023-02-03T11:50:50;21.70;64.60
2995;DHT22;35277;49.890;8.222;2023-02-03T11:53:29;21.70;64.50
2995;DHT22;35277;49.890;8.222;2023-02-03T11:56:26;21.70;64.50
2995;DHT22;35277;49.890;8.222;2023-02-03T11:59:16;21.70;64.40
2995;DHT22;35277;49.890;8.222;2023-02-03T12:01:59;21.70;64.30
2995;DHT22;35277;49.890;8.222;2023-02-03T12:04:41;21.70;64.30
2995;DHT22;35277;49.890;8.222;2023-02-03T12:10:20;21.70;64.20
2995;DHT22;35277;49.890;8.222;2023-02-03T12:12:51;21.70;64.20
2995;DHT22;35277;49.890;8.222;2023-02-03T12:15:35;21.70;64.20
2995;DHT22;35277;49.890;8.222;2023-02-03T12:18:13;21.70;64.10
2995;DHT22;35277;49.890;8.222;2023-02-03T12:20:51;21.70;64.00
2995;DHT22;35277;49.890;8.222;2023-02-03T12:23:29;21.70;64.00
2995;DHT22;35277;49.890;8.222;2023-02-03T12:26:13;21.70;64.00
2995;DHT22;35277;49.890;8.222;2023-02-03T12:28:49;21.70;63.90
2995;DHT22;35277;49.890;8.222;2023-02-03T12:31:26;21.70;63.90
2995;DHT22;35277;49.890;8.222;2023-02-03T12:34:03;21.70;63.80
2995;DHT22;35277;49.890;8.222;2023-02-03T12:36:38;21.70;63.80
2995;DHT22;35277;49.890;8.222;2023-02-03T12:39:13;21.70;63.70
2995;DHT22;35277;49.890;8.222;2023-02-03T12:41:47;21.70;63.60
2995;DHT22;35277;49.890;8.222;2023-02-03T12:44:20;21.70;63.60
2995;DHT22;35277;49.890;8.222;2023-02-03T12:46:52;21.70;63.60
2995;DHT22;35277;49.890;8.222;2023-02-03T12:49:32;21.70;63.60
2995;DHT22;35277;49.890;8.222;2023-02-03T12:52:08;21.70;63.60
2995;DHT22;35277;49.890;8.222;2023-02-03T12:54:41;21.70;63.60
2995;DHT22;35277;49.890;8.222;2023-02-03T12:57:21;21.70;63.50
2995;DHT22;35277;49.890;8.222;2023-02-03T12:59:59;21.70;63.50
2995;DHT22;35277;49.890;8.222;2023-02-03T13:02:34;21.70;63.50
2995;DHT22;35277;49.890;8.222;2023-02-03T13:05:16;21.70;63.40
2995;DHT22;35277;49.890;8.222;2023-02-03T13:07:48;21.70;63.50
2995;DHT22;35277;49.890;8.222;2023-02-03T13:10:21;21.70;63.40
2995;DHT22;35277;49.890;8.222;2023-02-03T13:12:56;21.70;63.40
2995;DHT22;35277;49.890;8.222;2023-02-03T13:15:27;21.60;63.30
2995;DHT22;35277;49.890;8.222;2023-02-03T13:18:00;21.60;64.20
2995;DHT22;35277;49.890;8.222;2023-02-03T13:20:32;21.60;63.60
2995;DHT22;35277;49.890;8.222;2023-02-03T13:23:03;21.70;64.90
2995;DHT22;35277;49.890;8.222;2023-02-03T13:25:43;21.70;64.30
2995;DHT22;35277;49.890;8.222;2023-02-03T13:28:21;21.70;64.50
2995;DHT22;35277;49.890;8.222;2023-02-03T13:31:15;21.60;64.50
2995;DHT22;35277;49.890;8.222;2023-02-03T13:34:01;21.70;64.60
2995;DHT22;35277;49.890;8.222;2023-02-03T13:37:01;21.70;64.50
2995;DHT22;35277;49.890;8.222;2023-02-03T13:39:45;21.60;64.30
2995;DHT22;35277;49.890;8.222;2023-02-03T13:42:20;21.60;64.20
2995;DHT22;35277;49.890;8.222;2023-02-03T13:44:53;21.60;64.10
2995;DHT22;35277;49.890;8.222;2023-02-03T13:47:24;21.60;64.10
2995;DHT22;35277;49.890;8.222;2023-02-03T13:49:55;21.70;64.10
2995;DHT22;35277;49.890;8.222;2023-02-03T13:52:31;21.60;64.10
2995;DHT22;35277;49.890;8.222;2023-02-03T13:55:00;21.60;64.00
2995;DHT22;35277;49.890;8.222;2023-02-03T13:57:32;21.60;64.00
2995;DHT22;35277;49.890;8.222;2023-02-03T14:00:06;21.60;64.10
2995;DHT22;35277;49.890;8.222;2023-02-03T14:02:44;21.70;64.10
2995;DHT22;35277;49.890;8.222;2023-02-03T14:05:38;21.60;64.10
2995;DHT22;35277;49.890;8.222;2023-02-03T14:11:39;21.70;64.10
2995;DHT22;35277;49.890;8.222;2023-02-03T14:14:42;21.70;64.10
2995;DHT22;35277;49.890;8.222;2023-02-03T14:20:37;21.70;64.00
2995;DHT22;35277;49.890;8.222;2023-02-03T14:23:11;21.60;63.90
2995;DHT22;35277;49.890;8.222;2023-02-03T14:25:41;21.60;63.90
2995;DHT22;35277;49.890;8.222;2023-02-03T14:28:12;21.60;63.80
2995;DHT22;35277;49.890;8.222;2023-02-03T14:31:06;21.60;63.90
2995;DHT22;35277;49.890;8.222;2023-02-03T14:33:57;21.60;63.80
2995;DHT22;35277;49.890;8.222;2023-02-03T14:36:36;21.60;63.80
2995;DHT22;35277;49.890;8.222;2023-02-03T14:39:33;21.60;63.70
2995;DHT22;35277;49.890;8.222;2023-02-03T14:42:14;21.60;63.70
2995;DHT22;35277;49.890;8.222;2023-02-03T14:44:50;21.60;63.70
2995;DHT22;35277;49.890;8.222;2023-02-03T14:47:34;21.60;63.70
2995;DHT22;35277;49.890;8.222;2023-02-03T14:50:16;21.60;63.70
2995;DHT22;35277;49.890;8.222;2023-02-03T14:52:59;21.60;63.70
2995;DHT22;35277;49.890;8.222;2023-02-03T14:55:47;21.60;63.60
2995;DHT22;35277;49.890;8.222;2023-02-03T14:58:24;21.60;63.60
2995;DHT22;35277;49.890;8.222;2023-02-03T15:00:54;21.60;63.60
2995;DHT22;35277;49.890;8.222;2023-02-03T15:03:23;21.60;63.50
2995;DHT22;35277;49.890;8.222;2023-02-03T15:05:54;21.60;63.50
2995;DHT22;35277;49.890;8.222;2023-02-03T15:08:38;21.60;63.50
2995;DHT22;35277;49.890;8.222;2023-02-03T15:11:26;21.60;63.50
2995;DHT22;35277;49.890;8.222;2023-02-03T15:13:55;21.60;63.50
2995;DHT22;35277;49.890;8.222;2023-02-03T15:16:24;21.60;63.60
2995;DHT22;35277;49.890;8.222;2023-02-03T15:18:54;21.60;63.60
2995;DHT22;35277;49.890;8.222;2023-02-03T15:21:23;21.60;63.70
2995;DHT22;35277;49.890;8.222;2023-02-03T15:23:52;21.60;63.80
2995;DHT22;35277;49.890;8.222;2023-02-03T15:26:22;21.60;63.90
2995;DHT22;35277;49.890;8.222;2023-02-03T15:28:54;21.60;64.00
2995;DHT22;35277;49.890;8.222;2023-02-03T15:31:25;21.60;63.90
2995;DHT22;35277;49.890;8.222;2023-02-03T15:33:56;21.60;63.90
2995;DHT22;35277;49.890;8.222;2023-02-03T15:36:34;21.60;64.70
2995;DHT22;35277;49.890;8.222;2023-02-03T15:39:16;21.60;63.90
2995;DHT22;35277;49.890;8.222;2023-02-03T15:41:50;21.60;64.00
2995;DHT22;35277;49.890;8.222;2023-02-03T15:44:29;21.60;63.90
2995;DHT22;35277;49.890;8.222;2023-02-03T15:46:59;21.60;64.00
2995;DHT22;35277;49.890;8.222;2023-02-03T15:49:32;21.60;64.00
2995;DHT22;35277;49.890;8.222;2023-02-03T15:52:02;21.60;64.10
2995;DHT22;35277;49.890;8.222;2023-02-03T15:54:37;21.60;64.10
2995;DHT22;35277;49.890;8.222;2023-02-03T15:57:10;21.60;64.10
2995;DHT22;35277;49.890;8.222;2023-02-03T15:59:45;21.60;64.10
2995;DHT22;35277;49.890;8.222;2023-02-03T16:02:17;21.60;64.10
2995;DHT22;35277;49.890;8.222;2023-02-03T16:04:46;21.60;64.10
2995;DHT22;35277;49.890;8.222;2023-02-03T16:07:17;21.60;64.10
2995;DHT22;35277;49.890;8.222;2023-02-03T16:09:51;21.60;64.10
2995;DHT22;35277;49.890;8.222;2023-02-03T16:12:22;21.60;64.10
2995;DHT22;35277;49.890;8.222;2023-02-03T16:14:51;21.60;64.10
2995;DHT22;35277;49.890;8.222;2023-02-03T16:17:22;21.60;64.00
2995;DHT22;35277;49.890;8.222;2023-02-03T16:23:18;21.60;64.00
2995;DHT22;35277;49.890;8.222;2023-02-03T16:28:39;21.60;64.00
2995;DHT22;35277;49.890;8.222;2023-02-03T16:31:24;21.60;64.00
2995;DHT22;35277;49.890;8.222;2023-02-03T16:34:13;21.60;64.10
2995;DHT22;35277;49.890;8.222;2023-02-03T16:36:59;21.60;64.10
2995;DHT22;35277;49.890;8.222;2023-02-03T16:39:44;21.60;64.10